Time;durP1;ratioP1;P1;durP2;ratioP2;P2;SDS_P1;SDS_P2;PMS_P1;PMS_P2;Temp;Humidity;BMP_temperature;BMP_pressure;BME280_temperature;BME280_humidity;BME280_pressure;Samples;Min_cycle;Max_cycle;Signal;HPM_P1;HPM_P2
2023/08/03 00:00:30;;;;;;;4.22;0.98;;;23.10;74.40;;;;;;2479953;55;20968;-72
2023/08/03 00:02:56;;;;;;;6.20;1.10;;;23.10;74.00;;;;;;2281625;56;21041;-72
2023/08/03 00:05:23;;;;;;;3.28;0.90;;;23.10;74.50;;;;;;2513314;55;20954;-72
2023/08/03 00:07:50;;;;;;;2.70;0.80;;;23.10;74.50;;;;;;2513423;55;20974;-70
2023/08/03 00:10:17;;;;;;;5.65;1.20;;;23.10;74.60;;;;;;2489501;55;21004;-74
2023/08/03 00:12:45;;;;;;;4.45;1.55;;;23.10;74.60;;;;;;2503271;55;21379;-74
2023/08/03 00:15:13;;;;;;;3.55;1.35;;;23.10;74.50;;;;;;2479292;55;21024;-73
2023/08/03 00:17:40;;;;;;;2.92;1.10;;;23.10;74.50;;;;;;2514800;55;20971;-73
2023/08/03 00:20:07;;;;;;;4.20;1.33;;;23.10;74.50;;;;;;2512439;55;21098;-72
2023/08/03 00:22:33;;;;;;;3.85;1.15;;;23.10;74.40;;;;;;2495825;55;20976;-73
2023/08/03 00:25:00;;;;;;;3.22;1.00;;;23.10;75.00;;;;;;2243005;57;20957;-72
2023/08/03 00:27:27;;;;;;;5.45;1.30;;;23.00;74.10;;;;;;2515358;55;21537;-73
2023/08/03 00:29:54;;;;;;;4.80;1.42;;;23.00;74.10;;;;;;2515026;55;21451;-72
2023/08/03 00:32:20;;;;;;;6.53;1.20;;;23.00;74.00;;;;;;2514064;55;21838;-72
2023/08/03 00:34:47;;;;;;;4.37;1.15;;;23.00;74.00;;;;;;2514000;55;20918;-72
2023/08/03 00:37:53;;;;;;;4.50;0.98;;;23.00;73.90;;;;;;2513036;55;21758;-73
2023/08/03 00:40:20;;;;;;;3.25;1.10;;;23.00;71.90;;;;;;2513616;55;20962;-72
2023/08/03 00:42:47;;;;;;;4.22;1.00;;;23.00;73.70;;;;;;2500935;55;21885;-72
2023/08/03 00:45:13;;;;;;;4.03;1.30;;;22.90;73.50;;;;;;2264549;56;20997;-73
2023/08/03 00:47:40;;;;;;;2.40;0.90;;;22.90;73.50;;;;;;2514096;55;20962;-73
2023/08/03 00:50:09;;;;;;;5.15;1.17;;;22.90;73.40;;;;;;2486925;55;21076;-73
2023/08/03 00:52:38;;;;;;;3.30;0.80;;;22.90;73.30;;;;;;2477197;55;21028;-73
2023/08/03 00:55:06;;;;;;;3.58;1.12;;;22.90;73.20;;;;;;2506294;55;21062;-72
2023/08/03 00:57:33;;;;;;;3.50;0.90;;;22.90;73.40;;;;;;2255245;56;20962;-71
2023/08/03 01:00:00;;;;;;;3.87;0.98;;;22.90;73.40;;;;;;2282611;56;21340;-71
2023/08/03 01:02:27;;;;;;;4.10;0.80;;;22.80;73.20;;;;;;2515236;55;20975;-73
2023/08/03 01:04:54;;;;;;;5.18;1.17;;;22.80;73.10;;;;;;2513602;55;20974;-72
2023/08/03 01:07:22;;;;;;;3.70;0.90;;;22.80;73.10;;;;;;2254088;56;20975;-70
2023/08/03 01:09:50;;;;;;;4.68;0.98;;;22.80;72.90;;;;;;2262772;56;20998;-71
2023/08/03 01:12:23;;;;;;;3.50;0.98;;;22.80;73.10;;;;;;2281752;56;20959;-71
2023/08/03 01:14:49;;;;;;;5.37;1.30;;;22.80;72.40;;;;;;2513192;55;21025;-72
2023/08/03 01:17:17;;;;;;;4.32;1.20;;;22.70;72.90;;;;;;2281968;56;21375;-73
2023/08/03 01:19:45;;;;;;;3.10;0.98;;;22.70;72.90;;;;;;2514025;55;20962;-72
2023/08/03 01:22:12;;;;;;;4.15;0.93;;;22.70;73.00;;;;;;2514229;55;21881;-72
2023/08/03 01:24:41;;;;;;;4.15;0.93;;;22.70;73.00;;;;;;2514740;55;21601;-75
2023/08/03 01:27:08;;;;;;;5.03;1.20;;;22.70;73.00;;;;;;2514846;55;21030;-73
2023/08/03 01:29:34;;;;;;;3.92;0.93;;;22.60;72.90;;;;;;2515018;55;20935;-70
2023/08/03 01:32:01;;;;;;;3.65;0.82;;;22.60;73.00;;;;;;2514265;55;20942;-71
2023/08/03 01:34:29;;;;;;;6.18;1.05;;;22.60;73.00;;;;;;2480410;55;21039;-71
2023/08/03 01:36:56;;;;;;;5.07;1.20;;;22.60;73.00;;;;;;2514961;55;21777;-72
2023/08/03 01:39:24;;;;;;;4.35;1.20;;;22.60;73.00;;;;;;2514285;55;20973;-72
2023/08/03 01:41:51;;;;;;;3.72;1.00;;;22.60;72.80;;;;;;2279576;56;21471;-72
2023/08/03 01:44:42;;;;;;;2.83;0.80;;;22.60;72.90;;;;;;2280544;56;21018;-72
2023/08/03 01:47:12;;;;;;;4.12;0.88;;;22.60;71.20;;;;;;2507328;55;21003;-72
2023/08/03 01:49:39;;;;;;;3.08;0.82;;;22.60;73.10;;;;;;2474321;55;20963;-72
2023/08/03 01:52:08;;;;;;;3.12;0.70;;;22.50;73.00;;;;;;2264131;56;20994;-71
2023/08/03 01:54:36;;;;;;;4.78;0.90;;;22.60;72.70;;;;;;2258232;56;21074;-69
2023/08/03 01:57:07;;;;;;;6.65;1.27;;;22.50;72.90;;;;;;2513565;55;20934;-71
2023/08/03 01:59:34;;;;;;;5.87;1.10;;;22.50;72.80;;;;;;2479923;55;21097;-71
2023/08/03 02:02:03;;;;;;;6.20;1.52;;;22.50;72.80;;;;;;2277685;55;20974;-70
2023/08/03 02:04:32;;;;;;;5.65;0.95;;;22.50;72.70;;;;;;2489996;55;21031;-73
2023/08/03 02:08:36;;;;;;;4.93;1.10;;;22.50;72.30;;;;;;2504858;55;20991;-68
2023/08/03 02:11:07;;;;;;;6.07;1.37;;;22.40;70.40;;;;;;2514383;55;20955;-69
2023/08/03 02:13:37;;;;;;;5.03;1.10;;;22.40;72.60;;;;;;2515324;55;20922;-72
2023/08/03 02:16:08;;;;;;;6.10;1.00;;;22.40;72.80;;;;;;2514748;55;20987;-71
2023/08/03 02:18:45;;;;;;;5.82;1.00;;;22.40;72.70;;;;;;2480227;55;21005;-72
2023/08/03 02:21:12;;;;;;;6.60;1.25;;;22.30;72.50;;;;;;2513239;55;21840;-73
2023/08/03 02:23:39;;;;;;;9.35;1.80;;;22.30;72.50;;;;;;2479165;55;20952;-69
2023/08/03 02:26:08;;;;;;;4.70;1.27;;;22.30;72.40;;;;;;2281687;56;21050;-71
2023/08/03 02:28:36;;;;;;;4.15;1.08;;;22.30;71.90;;;;;;2493790;55;20896;-72
2023/08/03 02:31:08;;;;;;;7.57;1.48;;;22.30;72.50;;;;;;2473970;56;20973;-73
2023/08/03 02:33:35;;;;;;;5.70;1.15;;;22.30;72.60;;;;;;2497716;55;20966;-73
2023/08/03 02:36:01;;;;;;;3.47;1.10;;;22.20;72.40;;;;;;2478034;55;20953;-73
2023/08/03 02:38:28;;;;;;;7.62;1.40;;;22.20;72.40;;;;;;2252912;56;20988;-72
2023/08/03 02:40:57;;;;;;;4.80;1.37;;;22.20;72.30;;;;;;2475847;55;20950;-72
2023/08/03 02:43:26;;;;;;;6.40;1.48;;;22.20;72.30;;;;;;2469039;55;20987;-71
2023/08/03 02:45:53;;;;;;;5.43;1.02;;;22.20;72.40;;;;;;2503596;55;20963;-72
2023/08/03 02:48:20;;;;;;;5.45;1.42;;;22.20;72.40;;;;;;2503062;55;20954;-71
2023/08/03 02:50:46;;;;;;;4.35;1.00;;;22.20;72.50;;;;;;2503811;55;20958;-73
2023/08/03 02:53:13;;;;;;;6.05;1.15;;;22.20;72.40;;;;;;2504180;55;20947;-72
2023/08/03 02:55:40;;;;;;;4.18;1.12;;;22.10;72.30;;;;;;2503904;55;20966;-72
2023/08/03 02:58:12;;;;;;;4.68;0.88;;;22.10;72.20;;;;;;2504173;55;20935;-73
2023/08/03 03:00:42;;;;;;;5.62;0.98;;;22.10;71.50;;;;;;2504991;55;20967;-72
2023/08/03 03:03:14;;;;;;;5.35;1.37;;;22.10;72.30;;;;;;2504094;55;21039;-72
2023/08/03 03:05:41;;;;;;;4.80;1.10;;;22.10;71.60;;;;;;2504803;55;20970;-72
2023/08/03 03:08:10;;;;;;;5.45;1.05;;;22.10;72.30;;;;;;2438063;56;21840;-72
2023/08/03 03:10:37;;;;;;;3.53;0.90;;;22.10;72.40;;;;;;2272964;56;21395;-72
2023/08/03 03:13:04;;;;;;;3.83;0.95;;;22.00;72.30;;;;;;2504438;55;21003;-71
2023/08/03 03:15:31;;;;;;;4.07;0.95;;;22.00;72.20;;;;;;2240962;56;20998;-72
2023/08/03 03:17:58;;;;;;;5.50;1.35;;;22.00;72.20;;;;;;2504153;55;21018;-73
2023/08/03 03:20:31;;;;;;;4.07;0.80;;;22.00;72.20;;;;;;2447665;55;21524;-71
2023/08/03 03:22:59;;;;;;;6.12;0.73;;;22.00;72.20;;;;;;2466024;55;20985;-72
2023/08/03 03:26:03;;;;;;;3.75;1.12;;;21.90;72.10;;;;;;2489538;55;20975;-73
2023/08/03 03:28:29;;;;;;;5.20;0.98;;;21.90;70.50;;;;;;2503030;55;20961;-72
2023/08/03 03:30:55;;;;;;;4.65;0.82;;;21.90;72.20;;;;;;2503799;55;20986;-73
2023/08/03 03:33:22;;;;;;;5.50;0.80;;;21.90;72.10;;;;;;2503141;55;21034;-69
2023/08/03 03:35:49;;;;;;;5.53;1.23;;;21.80;71.90;;;;;;2473393;55;20965;-71
2023/08/03 03:38:16;;;;;;;3.90;0.95;;;21.80;72.00;;;;;;2476067;55;20988;-70
2023/08/03 03:40:43;;;;;;;4.80;0.90;;;21.80;72.10;;;;;;2256501;56;20958;-72
2023/08/03 03:43:12;;;;;;;4.55;1.05;;;21.70;72.00;;;;;;2484910;55;21334;-71
2023/08/03 03:45:41;;;;;;;4.93;1.15;;;21.70;72.00;;;;;;2451137;56;21450;-72
2023/08/03 03:48:07;;;;;;;3.78;0.88;;;21.70;72.10;;;;;;2463337;55;20945;-72
2023/08/03 03:50:34;;;;;;;2.78;0.68;;;21.70;72.20;;;;;;2501851;55;21008;-71
2023/08/03 03:53:01;;;;;;;3.37;0.70;;;21.60;72.00;;;;;;2476448;55;21408;-72
2023/08/03 03:55:28;;;;;;;2.87;1.20;;;21.60;72.20;;;;;;2273172;56;21041;-72
2023/08/03 03:58:00;;;;;;;3.40;0.70;;;21.60;72.10;;;;;;2504708;55;21659;-72
2023/08/03 04:00:37;;;;;;;2.87;0.80;;;21.60;72.20;;;;;;2502710;55;21279;-70
2023/08/03 04:03:11;;;;;;;4.47;1.10;;;21.60;72.20;;;;;;2422461;55;1395574;-72
2023/08/03 04:05:40;;;;;;;2.60;0.75;;;21.50;71.10;;;;;;2490857;55;20944;-71
2023/08/03 04:08:09;;;;;;;3.53;0.85;;;21.50;71.80;;;;;;2275155;56;20983;-72
2023/08/03 04:10:36;;;;;;;3.47;0.73;;;21.50;72.40;;;;;;2503720;55;20982;-72
2023/08/03 04:13:05;;;;;;;3.28;0.75;;;21.50;72.50;;;;;;2504018;55;21771;-71
2023/08/03 04:15:33;;;;;;;2.58;0.70;;;21.50;72.60;;;;;;2273159;56;21011;-71
2023/08/03 04:17:59;;;;;;;3.17;0.70;;;21.50;72.60;;;;;;2503369;55;20959;-72
2023/08/03 04:20:27;;;;;;;3.78;0.80;;;21.50;72.60;;;;;;2502876;55;20998;-71
2023/08/03 04:22:54;;;;;;;4.65;0.75;;;21.50;72.60;;;;;;2503115;55;20959;-71
2023/08/03 04:25:20;;;;;;;4.22;0.90;;;21.50;72.60;;;;;;2502786;55;20958;-71
2023/08/03 04:27:47;;;;;;;3.33;1.00;;;21.50;72.60;;;;;;2272000;56;21058;-70
2023/08/03 04:30:14;;;;;;;4.00;0.75;;;21.40;72.60;;;;;;2502337;55;21070;-71
2023/08/03 04:32:41;;;;;;;3.40;0.90;;;21.40;72.60;;;;;;2484613;55;21012;-72
2023/08/03 04:35:09;;;;;;;4.65;0.90;;;21.40;72.50;;;;;;2481589;55;21023;-72
2023/08/03 04:37:38;;;;;;;5.07;1.02;;;21.40;72.50;;;;;;2503382;55;20935;-72
2023/08/03 04:40:06;;;;;;;2.72;0.77;;;21.40;72.30;;;;;;2503841;55;20927;-71
2023/08/03 04:42:32;;;;;;;3.28;0.70;;;21.40;72.60;;;;;;2272334;56;21132;-72
2023/08/03 04:44:59;;;;;;;6.72;0.98;;;21.40;72.70;;;;;;2503190;55;21014;-71
2023/08/03 04:47:28;;;;;;;4.30;1.30;;;21.40;72.80;;;;;;2272145;56;21018;-71
2023/08/03 04:49:57;;;;;;;5.95;1.00;;;21.40;73.20;;;;;;2502385;55;20951;-71
2023/08/03 04:52:26;;;;;;;4.55;1.10;;;21.40;72.60;;;;;;2241911;56;21998;-70
2023/08/03 04:54:53;;;;;;;6.03;0.90;;;21.40;72.60;;;;;;2272104;56;21352;-71
2023/08/03 04:57:19;;;;;;;5.30;0.95;;;21.30;72.60;;;;;;2502411;55;20955;-70
2023/08/03 04:59:45;;;;;;;3.47;1.02;;;21.40;73.40;;;;;;2502224;55;21010;-71
2023/08/03 05:02:12;;;;;;;3.95;1.17;;;21.40;72.80;;;;;;2503320;55;20951;-74
2023/08/03 05:04:39;;;;;;;3.85;0.80;;;21.40;72.80;;;;;;2272189;56;20974;-70
2023/08/03 05:07:06;;;;;;;4.82;1.00;;;21.40;72.70;;;;;;2499893;55;21003;-70
2023/08/03 05:09:32;;;;;;;4.53;0.93;;;21.30;72.70;;;;;;2467886;55;21440;-72
2023/08/03 05:11:59;;;;;;;6.80;1.00;;;21.30;72.70;;;;;;2503602;55;21010;-71
2023/08/03 05:14:27;;;;;;;3.80;0.75;;;21.30;72.70;;;;;;2272441;56;20935;-70
2023/08/03 05:16:53;;;;;;;3.50;0.90;;;21.30;72.70;;;;;;2272968;56;21029;-73
2023/08/03 05:19:20;;;;;;;3.78;1.10;;;21.30;72.60;;;;;;2273234;56;21921;-69
2023/08/03 05:21:47;;;;;;;4.43;0.90;;;21.30;72.60;;;;;;2243545;56;20960;-71
2023/08/03 05:24:14;;;;;;;4.90;0.95;;;21.30;72.70;;;;;;2254421;56;20989;-71
2023/08/03 05:26:40;;;;;;;3.42;0.90;;;21.30;72.70;;;;;;2490662;55;21011;-72
2023/08/03 05:29:08;;;;;;;3.42;0.98;;;21.30;72.60;;;;;;2503768;55;20982;-71
2023/08/03 05:31:35;;;;;;;3.05;0.70;;;21.30;72.50;;;;;;2503457;55;20935;-71
2023/08/03 05:34:04;;;;;;;3.62;0.80;;;21.30;72.60;;;;;;2273375;56;20943;-71
2023/08/03 05:36:31;;;;;;;3.83;0.90;;;21.30;72.60;;;;;;2503201;55;20967;-68
2023/08/03 05:38:58;;;;;;;5.12;0.75;;;21.30;72.50;;;;;;2503691;55;21682;-71
2023/08/03 05:41:27;;;;;;;4.10;1.00;;;21.40;72.50;;;;;;2503745;55;20966;-70
2023/08/03 05:43:54;;;;;;;2.28;0.47;;;21.30;72.50;;;;;;2248706;56;21000;-71
2023/08/03 05:46:20;;;;;;;5.20;0.90;;;21.30;72.50;;;;;;2245617;56;20982;-71
2023/08/03 05:48:52;;;;;;;3.35;0.77;;;21.30;72.50;;;;;;2246187;56;21001;-71
2023/08/03 05:51:26;;;;;;;2.80;0.70;;;21.30;72.50;;;;;;2487126;55;20979;-72
2023/08/03 05:53:55;;;;;;;3.75;0.80;;;21.30;72.00;;;;;;2464690;56;21012;-71
2023/08/03 05:56:22;;;;;;;5.37;0.88;;;21.30;72.50;;;;;;2463576;56;21001;-71
2023/08/03 05:58:49;;;;;;;3.53;0.77;;;21.30;72.50;;;;;;2465164;56;20941;-71
2023/08/03 06:01:19;;;;;;;4.82;0.70;;;21.30;72.30;;;;;;2472539;56;21001;-72
2023/08/03 06:03:49;;;;;;;2.45;0.62;;;21.30;72.00;;;;;;2247075;56;21104;-71
2023/08/03 06:06:18;;;;;;;2.67;0.50;;;21.30;72.40;;;;;;2472963;56;21432;-71
2023/08/03 06:08:54;;;;;;;2.47;0.60;;;21.30;72.40;;;;;;2472490;56;20941;-71
2023/08/03 06:11:20;;;;;;;2.12;0.68;;;21.40;71.60;;;;;;2472319;56;20950;-71
2023/08/03 06:13:53;;;;;;;4.35;0.75;;;21.30;72.60;;;;;;2247632;56;20990;-71
2023/08/03 06:16:20;;;;;;;3.28;0.90;;;21.40;72.80;;;;;;2472878;55;20938;-72
2023/08/03 06:18:53;;;;;;;3.03;0.65;;;21.40;72.80;;;;;;2501350;55;21118;-71
2023/08/03 06:21:20;;;;;;;3.30;0.82;;;21.40;72.40;;;;;;2467415;55;20930;-71
2023/08/03 06:23:49;;;;;;;4.47;0.70;;;21.40;72.80;;;;;;2469652;56;20953;-71
2023/08/03 06:26:18;;;;;;;3.90;0.93;;;21.40;72.60;;;;;;2246349;56;21826;-72
2023/08/03 06:28:45;;;;;;;2.85;0.70;;;21.40;72.40;;;;;;2470588;56;21854;-72
2023/08/03 06:31:13;;;;;;;3.50;0.73;;;21.40;72.80;;;;;;2244905;56;21097;-71
2023/08/03 06:33:53;;;;;;;4.10;0.85;;;21.40;72.60;;;;;;2219137;56;21085;-72
2023/08/03 06:36:22;;;;;;;4.60;0.98;;;21.40;71.60;;;;;;2461253;55;21802;-72
2023/08/03 06:38:49;;;;;;;3.62;0.90;;;21.50;72.80;;;;;;2471559;55;20980;-71
2023/08/03 06:41:17;;;;;;;3.53;0.68;;;21.50;72.80;;;;;;2246804;56;20960;-72
2023/08/03 06:43:45;;;;;;;3.70;0.70;;;21.50;72.80;;;;;;2471456;55;20976;-69
2023/08/03 06:46:11;;;;;;;4.30;0.80;;;21.50;72.90;;;;;;2472896;55;21004;-72
2023/08/03 06:48:40;;;;;;;4.00;0.60;;;21.50;72.80;;;;;;2245695;56;20944;-72
2023/08/03 06:51:07;;;;;;;3.65;0.80;;;21.50;72.70;;;;;;2218667;56;21039;-72
2023/08/03 06:53:33;;;;;;;2.97;0.80;;;21.50;73.40;;;;;;2248673;56;21422;-71
2023/08/03 06:55:59;;;;;;;2.55;0.60;;;21.50;72.60;;;;;;2434628;56;21066;-71
2023/08/03 06:58:26;;;;;;;2.87;0.60;;;21.50;72.60;;;;;;2472708;55;20916;-71
2023/08/03 07:00:53;;;;;;;2.78;0.70;;;21.50;72.60;;;;;;2246891;56;20983;-70
2023/08/03 07:03:19;;;;;;;3.42;0.70;;;21.50;72.40;;;;;;2472895;55;20972;-70
2023/08/03 07:05:48;;;;;;;3.62;0.68;;;21.60;72.50;;;;;;2245262;56;21280;-71
2023/08/03 07:08:14;;;;;;;3.28;0.73;;;21.60;72.10;;;;;;2473270;55;20996;-72
2023/08/03 07:10:41;;;;;;;1.85;0.50;;;21.50;72.30;;;;;;2247257;56;20924;-72
2023/08/03 07:13:08;;;;;;;2.92;0.70;;;21.50;72.40;;;;;;2472898;55;21011;-69
2023/08/03 07:15:37;;;;;;;2.78;0.47;;;21.60;72.50;;;;;;2473666;55;21014;-72
2023/08/03 07:18:06;;;;;;;3.50;0.80;;;21.60;72.40;;;;;;2243935;56;21499;-71
2023/08/03 07:24:02;;;;;;;2.35;0.60;;;21.60;71.00;;;;;;2472002;56;21007;-71
2023/08/03 07:26:28;;;;;;;1.87;0.40;;;21.60;72.30;;;;;;2472131;56;21629;-71
2023/08/03 07:28:55;;;;;;;1.90;0.50;;;21.50;72.10;;;;;;2247290;56;21015;-71
2023/08/03 07:31:21;;;;;;;3.25;0.50;;;21.50;72.20;;;;;;2472015;55;20966;-70
2023/08/03 07:33:47;;;;;;;3.58;0.70;;;21.50;72.10;;;;;;2246891;56;20950;-71
2023/08/03 07:36:18;;;;;;;2.60;0.68;;;21.60;72.20;;;;;;2471306;56;21015;-70
2023/08/03 07:38:45;;;;;;;2.70;0.50;;;21.60;71.80;;;;;;2473418;55;21016;-72
2023/08/03 07:41:11;;;;;;;3.87;0.70;;;21.60;72.20;;;;;;2236344;56;20934;-71
2023/08/03 07:43:39;;;;;;;2.53;0.60;;;21.50;72.10;;;;;;2472947;55;21427;-71
2023/08/03 07:46:05;;;;;;;3.15;0.73;;;21.60;72.30;;;;;;2246801;56;20983;-71
2023/08/03 07:48:31;;;;;;;2.53;0.50;;;21.60;72.30;;;;;;2473166;56;20984;-72
2023/08/03 07:51:10;;;;;;;2.67;0.55;;;21.60;72.40;;;;;;2471983;56;22036;-71
2023/08/03 07:53:36;;;;;;;2.25;0.50;;;21.60;71.20;;;;;;2246582;56;20973;-71
2023/08/03 07:56:03;;;;;;;3.12;0.60;;;21.60;72.30;;;;;;2247202;56;21052;-72
2023/08/03 07:58:29;;;;;;;2.47;0.50;;;21.60;72.40;;;;;;2473311;55;20949;-71
2023/08/03 08:01:12;;;;;;;1.83;0.50;;;21.70;72.50;;;;;;2247086;56;20944;-70
2023/08/03 08:03:39;;;;;;;1.90;0.60;;;21.70;71.20;;;;;;2472059;56;20981;-70
2023/08/03 08:06:06;;;;;;;3.17;0.75;;;21.70;72.70;;;;;;2472677;56;20965;-72
2023/08/03 08:08:35;;;;;;;3.53;0.50;;;21.70;72.50;;;;;;2247573;56;20969;-71
2023/08/03 08:11:02;;;;;;;2.58;0.70;;;21.70;72.50;;;;;;2246382;56;21538;-73
2023/08/03 08:13:36;;;;;;;1.87;0.52;;;21.80;72.60;;;;;;2247479;56;20977;-71
2023/08/03 08:16:04;;;;;;;2.22;0.50;;;21.80;72.70;;;;;;2247408;56;21046;-71
2023/08/03 08:18:31;;;;;;;3.90;0.60;;;21.80;72.50;;;;;;2471679;56;20973;-72
2023/08/03 08:20:59;;;;;;;2.17;0.40;;;21.80;72.60;;;;;;2472081;56;21397;-71
2023/08/03 08:23:25;;;;;;;3.03;0.73;;;21.80;72.50;;;;;;2246669;56;21037;-71
2023/08/03 08:25:51;;;;;;;3.03;0.62;;;21.90;72.60;;;;;;2460840;55;21085;-70
2023/08/03 08:28:22;;;;;;;3.60;0.60;;;21.90;72.60;;;;;;2470228;56;21018;-72
2023/08/03 08:30:49;;;;;;;2.35;0.50;;;21.90;72.50;;;;;;2241134;55;20997;-70
2023/08/03 08:33:16;;;;;;;2.53;0.50;;;21.90;72.40;;;;;;2244187;56;21392;-73
2023/08/03 08:35:43;;;;;;;2.05;0.57;;;21.90;72.30;;;;;;2470157;55;21048;-70
2023/08/03 08:38:09;;;;;;;2.15;0.62;;;21.90;72.30;;;;;;2471251;55;21016;-69
2023/08/03 08:40:36;;;;;;;1.62;0.47;;;21.90;72.20;;;;;;2280517;56;21420;-70
2023/08/03 08:43:03;;;;;;;3.35;0.70;;;21.90;72.20;;;;;;2508278;55;20998;-71
2023/08/03 08:45:30;;;;;;;3.22;0.65;;;22.00;72.10;;;;;;2484847;55;20962;-70
2023/08/03 08:47:57;;;;;;;3.62;0.70;;;22.00;72.10;;;;;;2513615;55;21059;-69
2023/08/03 08:50:27;;;;;;;3.08;0.55;;;22.00;72.10;;;;;;2513814;55;21931;-71
2023/08/03 08:52:54;;;;;;;2.17;0.70;;;22.00;72.10;;;;;;2513347;55;21749;-70
2023/08/03 08:55:28;;;;;;;4.40;0.60;;;22.10;72.10;;;;;;2485231;55;20944;-70
2023/08/03 08:57:58;;;;;;;3.90;0.70;;;22.00;71.50;;;;;;2508954;55;21498;-72
2023/08/03 09:00:27;;;;;;;3.42;0.70;;;22.10;72.00;;;;;;2514599;55;20939;-68
2023/08/03 09:02:59;;;;;;;1.83;0.60;;;22.10;72.00;;;;;;2283130;56;21061;-72
2023/08/03 09:05:26;;;;;;;1.87;0.60;;;22.10;71.90;;;;;;2254934;56;21140;-72
2023/08/03 09:08:14;;;;;;;1.65;0.50;;;22.10;71.90;;;;;;2280310;56;21014;-66
2023/08/03 09:10:54;;;;;;;1.30;0.50;;;22.10;71.40;;;;;;2513409;55;21018;-70
2023/08/03 09:13:31;;;;;;;3.10;0.68;;;22.20;70.80;;;;;;2513766;55;21034;-69
2023/08/03 09:15:58;;;;;;;2.35;0.60;;;22.10;70.60;;;;;;2280172;56;21428;-68
2023/08/03 09:18:27;;;;;;;3.37;1.00;;;22.20;71.90;;;;;;2514001;55;21035;-70
2023/08/03 09:21:12;;;;;;;2.45;0.50;;;22.20;71.90;;;;;;2280618;56;20946;-70
2023/08/03 09:23:41;;;;;;;2.12;0.47;;;22.20;70.20;;;;;;2514184;55;21743;-72
2023/08/03 09:26:11;;;;;;;2.15;0.43;;;22.20;71.90;;;;;;2513336;55;21555;-69
2023/08/03 09:28:38;;;;;;;2.17;0.60;;;22.20;71.70;;;;;;2512410;55;21887;-70
2023/08/03 09:31:05;;;;;;;2.42;0.60;;;22.10;71.70;;;;;;2513272;55;20954;-72
2023/08/03 09:33:32;;;;;;;2.53;0.57;;;22.30;72.00;;;;;;2267959;56;20948;-71
2023/08/03 09:36:13;;;;;;;2.75;0.60;;;22.30;72.00;;;;;;2498309;55;21077;-73
2023/08/03 09:38:45;;;;;;;2.10;0.95;;;22.40;70.80;;;;;;2514167;55;21765;-70
2023/08/03 09:41:12;;;;;;;1.60;0.45;;;22.40;72.00;;;;;;2279478;56;21536;-72
2023/08/03 09:43:41;;;;;;;5.00;1.02;;;22.40;72.10;;;;;;2484040;55;21027;-72
2023/08/03 09:46:13;;;;;;;6.30;0.60;;;22.50;71.80;;;;;;2278984;56;21028;-71
2023/08/03 09:48:41;;;;;;;1.85;0.40;;;22.50;71.50;;;;;;2281091;56;21451;-72
2023/08/03 09:51:07;;;;;;;1.95;0.40;;;22.50;71.90;;;;;;2281599;56;21010;-72
2023/08/03 09:53:37;;;;;;;1.95;0.60;;;22.60;72.10;;;;;;2514020;55;20994;-72
2023/08/03 09:56:05;;;;;;;1.67;0.50;;;22.60;71.70;;;;;;2280973;56;21030;-72
2023/08/03 09:58:44;;;;;;;1.85;0.60;;;22.60;72.00;;;;;;2515138;55;20942;-72
2023/08/03 10:01:11;;;;;;;2.95;0.43;;;22.70;71.50;;;;;;2482344;55;20944;-71
2023/08/03 10:03:37;;;;;;;2.40;0.50;;;22.70;72.10;;;;;;2278061;56;21850;-72
2023/08/03 10:06:10;;;;;;;3.42;0.65;;;22.80;72.00;;;;;;2281251;56;20947;-71
2023/08/03 10:09:25;;;;;;;2.33;0.47;;;22.80;71.40;;;;;;2264384;56;21378;-72
2023/08/03 10:11:53;;;;;;;2.00;0.45;;;22.90;71.60;;;;;;2267470;56;20942;-70
2023/08/03 10:14:32;;;;;;;3.25;0.50;;;22.90;72.10;;;;;;2281291;56;21149;-71
2023/08/03 10:17:04;;;;;;;2.47;0.50;;;23.00;71.90;;;;;;2513604;55;20963;-72
2023/08/03 10:19:31;;;;;;;2.90;0.52;;;23.00;71.90;;;;;;2513975;55;21366;-71
2023/08/03 10:22:00;;;;;;;1.45;0.47;;;23.10;72.30;;;;;;2513628;55;21715;-72
2023/08/03 10:24:26;;;;;;;2.28;0.40;;;23.10;72.10;;;;;;2513982;55;21042;-72
2023/08/03 10:27:13;;;;;;;1.77;0.50;;;23.20;72.20;;;;;;2512416;55;21002;-72
2023/08/03 10:29:53;;;;;;;2.67;0.62;;;23.20;71.90;;;;;;2281702;56;21037;-72
2023/08/03 10:32:22;;;;;;;1.95;0.47;;;23.30;70.70;;;;;;2513429;55;20946;-72
2023/08/03 10:34:52;;;;;;;2.25;0.50;;;23.40;72.00;;;;;;2280423;56;21032;-70
2023/08/03 10:37:20;;;;;;;2.35;0.47;;;23.40;71.70;;;;;;2486096;55;20946;-71
2023/08/03 10:39:52;;;;;;;1.35;0.35;;;23.50;71.60;;;;;;2281088;56;21073;-72
2023/08/03 10:42:39;;;;;;;0.95;0.30;;;23.50;71.10;;;;;;2281822;56;20994;-71
2023/08/03 10:45:25;;;;;;;1.42;0.30;;;23.50;69.80;;;;;;2513321;55;21002;-70
2023/08/03 10:47:53;;;;;;;2.30;0.50;;;23.60;69.70;;;;;;2281378;56;21015;-71
2023/08/03 10:50:23;;;;;;;2.80;0.65;;;23.60;71.80;;;;;;2514079;55;21101;-71
2023/08/03 10:52:49;;;;;;;2.37;0.40;;;23.70;71.90;;;;;;2281609;56;21784;-73
2023/08/03 10:55:24;;;;;;;2.12;0.50;;;23.70;71.70;;;;;;2513171;55;21002;-72
2023/08/03 10:57:51;;;;;;;2.12;0.60;;;23.80;71.40;;;;;;2514233;55;20971;-72
2023/08/03 11:00:17;;;;;;;1.75;0.60;;;23.80;71.90;;;;;;2514051;55;20953;-72
2023/08/03 11:02:44;;;;;;;3.12;0.40;;;23.90;72.00;;;;;;2514092;55;21663;-71
2023/08/03 11:05:14;;;;;;;1.58;0.50;;;23.90;71.90;;;;;;2280595;56;20939;-72
2023/08/03 11:07:41;;;;;;;2.17;0.50;;;23.90;71.40;;;;;;2281465;56;21014;-72
2023/08/03 11:10:09;;;;;;;2.20;0.50;;;24.00;72.00;;;;;;2281208;56;20942;-73
2023/08/03 11:12:36;;;;;;;1.85;0.50;;;24.10;71.80;;;;;;2478517;55;20979;-72
2023/08/03 11:15:05;;;;;;;2.05;0.40;;;24.20;72.10;;;;;;2281168;56;21090;-70
2023/08/03 11:17:33;;;;;;;2.33;0.50;;;24.20;71.70;;;;;;2262625;56;21003;-72
2023/08/03 11:20:00;;;;;;;1.00;0.30;;;24.30;71.70;;;;;;2482674;55;21026;-71
2023/08/03 11:22:28;;;;;;;1.77;0.40;;;24.30;71.80;;;;;;2513920;55;21322;-73
2023/08/03 11:24:56;;;;;;;1.27;0.30;;;24.40;72.00;;;;;;2514323;55;21018;-72
2023/08/03 11:27:23;;;;;;;5.00;0.77;;;24.40;71.90;;;;;;2281192;56;20934;-72
2023/08/03 11:29:52;;;;;;;1.58;0.50;;;24.50;72.10;;;;;;2483328;55;21052;-73
2023/08/03 11:32:26;;;;;;;2.50;0.50;;;24.60;72.40;;;;;;2278025;56;20962;-74
2023/08/03 11:35:05;;;;;;;1.85;0.40;;;24.70;71.70;;;;;;2491292;55;21480;-73
2023/08/03 11:37:35;;;;;;;3.08;0.50;;;24.80;70.60;;;;;;2275090;56;21328;-73
2023/08/03 11:40:04;;;;;;;0.65;0.30;;;24.80;72.20;;;;;;2281316;56;21468;-73
2023/08/03 11:42:30;;;;;;;2.33;0.50;;;24.90;72.20;;;;;;2248088;56;20957;-73
2023/08/03 11:44:56;;;;;;;1.12;0.35;;;25.00;72.30;;;;;;2472246;56;20933;-72
2023/08/03 11:47:24;;;;;;;1.87;0.50;;;25.10;72.40;;;;;;2471050;56;21913;-73
2023/08/03 11:49:54;;;;;;;1.73;0.40;;;25.20;72.40;;;;;;2472277;56;21033;-73
2023/08/03 11:52:21;;;;;;;1.40;0.30;;;25.30;72.00;;;;;;2246413;56;20969;-73
2023/08/03 11:54:50;;;;;;;0.98;0.40;;;25.40;71.80;;;;;;2472185;56;21025;-72
2023/08/03 12:00:06;;;;;;;2.83;0.40;;;25.50;71.50;;;;;;2245850;56;21530;-72
2023/08/03 12:02:44;;;;;;;1.48;0.30;;;25.60;71.40;;;;;;2242159;56;20985;-72
2023/08/03 12:05:11;;;;;;;1.27;0.30;;;25.70;69.00;;;;;;2477947;55;21033;-73
2023/08/03 12:07:43;;;;;;;;;;;25.70;71.00;;;;;;2279585;56;20943;-71
2023/08/03 12:10:31;;;;;;;1.60;0.30;;;25.80;69.50;;;;;;2510434;55;20109;-73
2023/08/03 12:13:00;;;;;;;1.35;0.30;;;25.80;71.20;;;;;;2513590;55;21022;-73
2023/08/03 12:15:27;;;;;;;1.65;0.32;;;25.90;70.50;;;;;;2513399;55;20966;-72
2023/08/03 12:17:53;;;;;;;1.52;0.40;;;25.90;69.80;;;;;;2514343;55;20954;-72
2023/08/03 12:20:22;;;;;;;1.23;0.40;;;25.90;69.40;;;;;;2280229;56;21423;-72
2023/08/03 12:22:48;;;;;;;0.65;0.25;;;25.90;69.30;;;;;;2280607;56;20930;-72
2023/08/03 12:25:15;;;;;;;1.58;0.40;;;25.90;69.40;;;;;;2507518;55;21025;-72
2023/08/03 12:27:42;;;;;;;1.02;0.35;;;25.90;69.40;;;;;;2513655;55;20958;-72
2023/08/03 12:30:10;;;;;;;1.20;0.30;;;25.90;69.40;;;;;;2513090;55;20979;-72
2023/08/03 12:32:37;;;;;;;1.00;0.22;;;25.90;69.30;;;;;;2513915;55;21050;-72
2023/08/03 12:35:08;;;;;;;0.98;0.25;;;25.90;69.40;;;;;;2514576;55;21094;-72
2023/08/03 12:37:35;;;;;;;2.47;0.45;;;25.90;69.10;;;;;;2514607;55;21098;-73
2023/08/03 12:40:02;;;;;;;0.90;0.30;;;25.90;68.90;;;;;;2513120;55;21002;-72
2023/08/03 12:42:29;;;;;;;1.83;0.35;;;25.90;69.10;;;;;;2513682;55;21625;-73
2023/08/03 12:44:55;;;;;;;1.37;0.43;;;25.90;69.40;;;;;;2513716;55;21030;-72
2023/08/03 12:47:22;;;;;;;0.75;0.28;;;25.90;68.60;;;;;;2514316;55;20977;-72
2023/08/03 12:49:48;;;;;;;1.62;0.40;;;25.90;68.50;;;;;;2512432;55;20998;-74
2023/08/03 12:52:14;;;;;;;1.80;0.40;;;25.90;68.20;;;;;;2510485;55;21467;-72
2023/08/03 12:54:41;;;;;;;1.35;0.30;;;25.90;68.20;;;;;;2282199;56;20943;-72
2023/08/03 12:57:08;;;;;;;1.52;0.40;;;25.90;68.10;;;;;;2509863;55;21416;-74
2023/08/03 12:59:38;;;;;;;1.65;0.40;;;25.80;68.30;;;;;;2515086;55;20982;-73
2023/08/03 13:02:05;;;;;;;2.37;0.40;;;25.80;68.10;;;;;;2512786;55;21042;-72
2023/08/03 13:04:31;;;;;;;0.98;0.25;;;25.80;68.20;;;;;;2499023;55;25083;-71